Time,TemperatureF,DewpointF,PressureIn,WindDirection,WindDirectionDegrees,WindSpeedMPH,WindSpeedGustMPH,Humidity,HourlyPrecipIn,Conditions,Clouds,dailyrainin,SoftwareType,DateUTC
2013-03-01 00:02:00,29.0,25.0,30.16,NW,315,8.0,10.0,84,-99.99,,,-99.99,,2013-03-01 06:02:00,
2013-03-01 00:11:00,29.0,25.0,30.16,NW,315,7.0,9.0,84,-99.99,,,-99.99,,2013-03-01 06:11:00,
2013-03-01 00:21:00,29.0,25.0,30.16,NW,315,7.0,10.0,84,-99.99,,,-99.99,,2013-03-01 06:21:00,
2013-03-01 00:32:00,29.0,25.0,30.15,NW,315,6.0,9.0,84,-99.99,,,-99.99,,2013-03-01 06:32:00,
2013-03-01 00:42:00,29.0,25.0,30.15,NW,315,6.0,8.0,84,-99.99,,,-99.99,,2013-03-01 06:42:00,
2013-03-01 00:52:00,29.0,24.0,30.16,NNW,337,6.0,8.0,84,-99.99,,,-99.99,,2013-03-01 06:52:00,
2013-03-01 01:02:00,29.0,24.0,30.16,NW,315,5.0,8.0,83,-99.99,,,-99.99,,2013-03-01 07:02:00,
2013-03-01 01:11:00,28.0,24.0,30.16,NW,315,5.0,7.0,83,-99.99,,,-99.99,,2013-03-01 07:11:00,
2013-03-01 01:22:00,29.0,24.0,30.15,NW,315,6.0,9.0,83,-99.99,,,-99.99,,2013-03-01 07:22:00,
2013-03-01 01:32:00,29.0,24.0,30.15,NW,315,6.0,8.0,84,-99.99,,,-99.99,,2013-03-01 07:32:00,
2013-03-01 01:42:00,28.0,24.0,30.16,NW,315,6.0,8.0,84,-99.99,,,-99.99,,2013-03-01 07:42:00,
2013-03-01 01:51:00,28.0,24.0,30.16,NW,315,6.0,7.0,85,-99.99,,,-99.99,,2013-03-01 07:51:00,
2013-03-01 02:02:00,28.0,24.0,30.16,NW,315,6.0,9.0,85,-99.99,,,-99.99,,2013-03-01 08:02:00,
2013-03-01 02:11:00,28.0,24.0,30.16,NW,315,5.0,7.0,86,-99.99,,,-99.99,,2013-03-01 08:11:00,
2013-03-01 02:22:00,28.0,24.0,30.15,NW,315,6.0,9.0,85,-99.99,,,-99.99,,2013-03-01 08:22:00,
2013-03-01 02:32:00,28.0,24.0,30.15,NW,315,6.0,8.0,86,-99.99,,,-99.99,,2013-03-01 08:32:00,
2013-03-01 02:42:00,28.0,24.0,30.15,NW,315,7.0,9.0,86,-99.99,,,-99.99,,2013-03-01 08:42:00,
2013-03-01 02:52:00,28.0,25.0,30.15,NW,315,7.0,9.0,86,-99.99,,,-99.99,,2013-03-01 08:52:00,
2013-03-01 03:02:00,28.0,24.0,30.15,NW,315,6.0,8.0,86,-99.99,,,-99.99,,2013-03-01 09:02:00,
2013-03-01 03:11:00,28.0,24.0,30.15,NW,315,6.0,8.0,86,-99.99,,,-99.99,,2013-03-01 09:11:00,
2013-03-01 03:22:00,28.0,24.0,30.15,NNW,337,7.0,9.0,86,-99.99,,,-99.99,,2013-03-01 09:22:00,
2013-03-01 03:32:00,28.0,25.0,30.15,NW,315,6.0,9.0,86,-99.99,,,-99.99,,2013-03-01 09:32:00,
2013-03-01 03:42:00,28.0,24.0,30.15,NW,315,6.0,8.0,87,-99.99,,,-99.99,,2013-03-01 09:42:00,
2013-03-01 03:52:00,28.0,24.0,30.15,NW,315,7.0,10.0,86,-99.99,,,-99.99,,2013-03-01 09:52:00,
2013-03-01 04:02:00,28.0,24.0,30.15,NW,315,6.0,10.0,86,-99.99,,,-99.99,,2013-03-01 10:02:00,
2013-03-01 04:11:00,28.0,24.0,30.15,NW,315,6.0,9.0,85,-99.99,,,-99.99,,2013-03-01 10:11:00,
2013-03-01 04:21:00,28.0,24.0,30.15,NW,315,5.0,8.0,86,-99.99,,,-99.99,,2013-03-01 10:21:00,
2013-03-01 04:32:00,28.0,24.0,30.15,NW,315,7.0,10.0,87,-99.99,,,-99.99,,2013-03-01 10:32:00,
2013-03-01 04:42:00,28.0,24.0,30.15,NW,315,7.0,11.0,86,-99.99,,,-99.99,,2013-03-01 10:42:00,
2013-03-01 04:52:00,27.0,24.0,30.15,NW,315,7.0,10.0,86,-99.99,,,-99.99,,2013-03-01 10:52:00,
2013-03-01 05:01:00,27.0,24.0,30.15,NNW,337,6.0,9.0,85,-99.99,,,-99.99,,2013-03-01 11:01:00,
2013-03-01 05:11:00,28.0,24.0,30.15,NW,315,7.0,11.0,85,-99.99,,,-99.99,,2013-03-01 11:11:00,
2013-03-01 05:22:00,28.0,23.0,30.15,NNW,337,6.0,11.0,84,-99.99,,,-99.99,,2013-03-01 11:22:00,
2013-03-01 05:32:00,27.0,23.0,30.15,NNW,337,6.0,10.0,84,-99.99,,,-99.99,,2013-03-01 11:32:00,
2013-03-01 05:42:00,27.0,23.0,30.15,NNW,337,5.0,8.0,84,-99.99,,,-99.99,,2013-03-01 11:42:00,
2013-03-01 05:52:00,27.0,23.0,30.16,NNW,337,4.0,6.0,84,-99.99,,,-99.99,,2013-03-01 11:52:00,
2013-03-01 06:01:00,27.0,23.0,30.16,NNW,337,5.0,8.0,83,-99.99,,,-99.99,,2013-03-01 12:01:00,
2013-03-01 06:11:00,27.0,23.0,30.16,NW,315,5.0,8.0,83,-99.99,,,-99.99,,2013-03-01 12:11:00,
2013-03-01 06:21:00,27.0,23.0,30.16,NW,315,6.0,9.0,84,-99.99,,,-99.99,,2013-03-01 12:21:00,
2013-03-01 06:32:00,27.0,23.0,30.16,NW,315,6.0,8.0,86,-99.99,,,-99.99,,2013-03-01 12:32:00,
2013-03-01 06:42:00,27.0,23.0,30.17,NW,315,8.0,11.0,85,-99.99,,,-99.99,,2013-03-01 12:42:00,
2013-03-01 06:52:00,27.0,23.0,30.17,NW,315,8.0,11.0,86,-99.99,,,-99.99,,2013-03-01 12:52:00,
2013-03-01 07:01:00,27.0,23.0,30.17,NW,315,9.0,12.0,86,-99.99,,,-99.99,,2013-03-01 13:01:00,
2013-03-01 07:11:00,27.0,23.0,30.17,NW,315,9.0,12.0,87,-99.99,,,-99.99,,2013-03-01 13:11:00,
2013-03-01 07:21:00,27.0,24.0,30.17,NW,315,8.0,10.0,88,-99.99,,,-99.99,,2013-03-01 13:21:00,
2013-03-01 07:32:00,27.0,23.0,30.17,NNW,337,9.0,12.0,88,-99.99,,,-99.99,,2013-03-01 13:32:00,
2013-03-01 07:41:00,27.0,23.0,30.18,WNW,292,8.0,11.0,87,-99.99,,,-99.99,,2013-03-01 13:41:00,
2013-03-01 07:51:00,27.0,23.0,30.18,NW,315,8.0,11.0,86,-99.99,,,-99.99,,2013-03-01 13:51:00,
2013-03-01 08:01:00,27.0,23.0,30.18,NW,315,9.0,11.0,86,-99.99,,,-99.99,,2013-03-01 14:01:00,
2013-03-01 08:11:00,27.0,23.0,30.18,NW,315,7.0,10.0,86,-99.99,,,-99.99,,2013-03-01 14:11:00,
2013-03-01 08:21:00,27.0,23.0,30.18,NW,315,7.0,11.0,85,-99.99,,,-99.99,,2013-03-01 14:21:00,
2013-03-01 08:32:00,27.0,23.0,30.18,WNW,292,7.0,11.0,84,-99.99,,,-99.99,,2013-03-01 14:32:00,
2013-03-01 08:41:00,27.0,22.0,30.19,NW,315,7.0,11.0,83,-99.99,,,-99.99,,2013-03-01 14:41:00,
2013-03-01 08:52:00,27.0,23.0,30.19,NNW,337,7.0,9.0,83,-99.99,,,-99.99,,2013-03-01 14:52:00,
2013-03-01 09:01:00,27.0,23.0,30.19,NNW,337,7.0,11.0,82,-99.99,,,-99.99,,2013-03-01 15:01:00,
2013-03-01 09:11:00,27.0,23.0,30.19,NW,315,7.0,9.0,83,-99.99,,,-99.99,,2013-03-01 15:11:00,
2013-03-01 09:21:00,27.0,22.0,30.19,NW,315,8.0,12.0,83,-99.99,,,-99.99,,2013-03-01 15:21:00,
2013-03-01 09:31:00,27.0,22.0,30.19,NW,315,9.0,13.0,82,-99.99,,,-99.99,,2013-03-01 15:31:00,
2013-03-01 09:42:00,27.0,23.0,30.19,NNW,337,8.0,12.0,83,-99.99,,,-99.99,,2013-03-01 15:42:00,
2013-03-01 09:52:00,27.0,23.0,30.20,NW,315,8.0,12.0,81,-99.99,,,-99.99,,2013-03-01 15:52:00,
2013-03-01 10:01:00,28.0,22.0,30.19,NW,315,8.0,11.0,80,-99.99,,,-99.99,,2013-03-01 16:01:00,
2013-03-01 10:11:00,28.0,23.0,30.20,NNW,337,8.0,12.0,80,-99.99,,,-99.99,,2013-03-01 16:11:00,
2013-03-01 10:21:00,28.0,22.0,30.20,NNW,337,8.0,12.0,78,-99.99,,,-99.99,,2013-03-01 16:21:00,
2013-03-01 10:32:00,28.0,22.0,30.20,NW,315,9.0,16.0,78,-99.99,,,-99.99,,2013-03-01 16:32:00,
2013-03-01 10:41:00,28.0,22.0,30.20,NNW,337,9.0,14.0,77,-99.99,,,-99.99,,2013-03-01 16:41:00,
2013-03-01 10:51:00,29.0,22.0,30.20,NNW,337,9.0,13.0,78,-99.99,,,-99.99,,2013-03-01 16:51:00,
2013-03-01 11:01:00,29.0,23.0,30.20,NNW,337,8.0,14.0,79,-99.99,,,-99.99,,2013-03-01 17:01:00,
2013-03-01 11:11:00,29.0,23.0,30.20,NW,315,9.0,13.0,78,-99.99,,,-99.99,,2013-03-01 17:11:00,
2013-03-01 11:21:00,29.0,22.0,30.20,NW,315,9.0,14.0,77,-99.99,,,-99.99,,2013-03-01 17:21:00,
2013-03-01 11:32:00,29.0,23.0,30.20,NW,315,8.0,12.0,77,-99.99,,,-99.99,,2013-03-01 17:32:00,
2013-03-01 11:41:00,29.0,22.0,30.20,NNW,337,8.0,13.0,75,-99.99,,,-99.99,,2013-03-01 17:41:00,
2013-03-01 11:52:00,29.0,23.0,30.20,NNW,337,8.0,11.0,77,-99.99,,,-99.99,,2013-03-01 17:52:00,
2013-03-01 12:01:00,30.0,22.0,30.20,NNW,337,7.0,11.0,74,-99.99,,,-99.99,,2013-03-01 18:01:00,
2013-03-01 12:12:00,30.0,22.0,30.20,East,90,10.0,16.0,73,-99.99,,,-99.99,,2013-03-01 18:12:00,
2013-03-01 12:22:00,29.0,22.0,30.20,NNW,337,9.0,14.0,73,-99.99,,,-99.99,,2013-03-01 18:22:00,
2013-03-01 12:31:00,30.0,23.0,30.20,NNW,337,7.0,10.0,75,-99.99,,,-99.99,,2013-03-01 18:31:00,
2013-03-01 12:41:00,30.0,23.0,30.20,NW,315,8.0,12.0,75,-99.99,,,-99.99,,2013-03-01 18:41:00,
2013-03-01 12:52:00,30.0,23.0,30.20,WNW,292,8.0,12.0,74,-99.99,,,-99.99,,2013-03-01 18:52:00,
2013-03-01 13:01:00,30.0,23.0,30.20,NNW,337,9.0,12.0,75,-99.99,,,-99.99,,2013-03-01 19:01:00,
2013-03-01 13:11:00,29.0,23.0,30.19,NW,315,8.0,11.0,77,-99.99,,,-99.99,,2013-03-01 19:11:00,
2013-03-01 13:21:00,30.0,23.0,30.19,NNW,337,8.0,12.0,76,-99.99,,,-99.99,,2013-03-01 19:21:00,
2013-03-01 13:32:00,30.0,23.0,30.19,NW,315,8.0,12.0,77,-99.99,,,-99.99,,2013-03-01 19:32:00,
2013-03-01 13:42:00,29.0,23.0,30.19,NW,315,8.0,11.0,77,-99.99,,,-99.99,,2013-03-01 19:42:00,
2013-03-01 13:51:00,30.0,23.0,30.19,East,90,8.0,13.0,78,-99.99,,,-99.99,,2013-03-01 19:51:00,
2013-03-01 14:01:00,29.0,24.0,30.19,NW,315,7.0,9.0,80,-99.99,,,-99.99,,2013-03-01 20:01:00,
2013-03-01 14:11:00,29.0,24.0,30.19,NW,315,7.0,11.0,79,-99.99,,,-99.99,,2013-03-01 20:11:00,
2013-03-01 14:21:00,29.0,24.0,30.19,NW,315,7.0,11.0,80,-99.99,,,-99.99,,2013-03-01 20:21:00,
2013-03-01 14:31:00,30.0,24.0,30.19,NNW,337,7.0,11.0,79,-99.99,,,-99.99,,2013-03-01 20:31:00,
2013-03-01 14:41:00,29.0,24.0,30.19,NNW,337,7.0,9.0,80,-99.99,,,-99.99,,2013-03-01 20:41:00,
2013-03-01 14:52:00,29.0,24.0,30.19,NNW,337,7.0,11.0,81,-99.99,,,-99.99,,2013-03-01 20:52:00,
2013-03-01 15:01:00,29.0,24.0,30.19,NNW,337,8.0,12.0,81,-99.99,,,-99.99,,2013-03-01 21:01:00,
2013-03-01 15:11:00,29.0,25.0,30.19,NNW,337,7.0,9.0,82,-99.99,,,-99.99,,2013-03-01 21:11:00,
2013-03-01 15:21:00,29.0,25.0,30.19,NNW,337,6.0,8.0,83,-99.99,,,-99.99,,2013-03-01 21:21:00,
2013-03-01 15:31:00,29.0,25.0,30.20,NNW,337,6.0,11.0,83,-99.99,,,-99.99,,2013-03-01 21:31:00,
2013-03-01 15:41:00,29.0,25.0,30.20,NNW,337,6.0,9.0,85,-99.99,,,-99.99,,2013-03-01 21:41:00,
2013-03-01 15:51:00,29.0,25.0,30.20,East,90,7.0,12.0,85,-99.99,,,-99.99,,2013-03-01 21:51:00,
2013-03-01 16:01:00,29.0,25.0,30.20,NNW,337,6.0,9.0,86,-99.99,,,-99.99,,2013-03-01 22:01:00,
2013-03-01 16:11:00,29.0,25.0,30.20,NNW,337,8.0,14.0,85,-99.99,,,-99.99,,2013-03-01 22:11:00,
2013-03-01 16:21:00,29.0,25.0,30.20,East,90,8.0,13.0,86,-99.99,,,-99.99,,2013-03-01 22:21:00,
2013-03-01 16:31:00,29.0,25.0,30.20,NW,315,7.0,11.0,88,-99.99,,,-99.99,,2013-03-01 22:31:00,
2013-03-01 16:41:00,29.0,25.0,30.21,East,90,9.0,14.0,86,-99.99,,,-99.99,,2013-03-01 22:41:00,
2013-03-01 16:51:00,29.0,25.0,30.20,NNW,337,8.0,11.0,86,-99.99,,,-99.99,,2013-03-01 22:51:00,
2013-03-01 17:01:00,28.0,24.0,30.21,NNW,337,9.0,14.0,84,-99.99,,,-99.99,,2013-03-01 23:01:00,
2013-03-01 17:11:00,28.0,25.0,30.21,East,90,8.0,12.0,86,-99.99,,,-99.99,,2013-03-01 23:11:00,
2013-03-01 17:21:00,28.0,25.0,30.21,NNW,337,6.0,11.0,86,-99.99,,,-99.99,,2013-03-01 23:21:00,
2013-03-01 17:31:00,28.0,25.0,30.21,NNW,337,6.0,9.0,87,-99.99,,,-99.99,,2013-03-01 23:31:00,
2013-03-01 17:41:00,28.0,25.0,30.22,NNW,337,6.0,11.0,88,-99.99,,,-99.99,,2013-03-01 23:41:00,
2013-03-01 17:52:00,28.0,25.0,30.22,East,90,6.0,8.0,89,-99.99,,,-99.99,,2013-03-01 23:52:00,
2013-03-01 18:02:00,28.0,25.0,30.22,NNW,337,6.0,9.0,90,-99.99,,,-99.99,,2013-03-02 00:02:00,
2013-03-01 18:11:00,27.0,25.0,30.22,East,90,6.0,12.0,90,-99.99,,,-99.99,,2013-03-02 00:11:00,
2013-03-01 18:21:00,27.0,25.0,30.22,NW,315,5.0,8.0,90,-99.99,,,-99.99,,2013-03-02 00:21:00,
2013-03-01 18:32:00,27.0,25.0,30.23,NNW,337,5.0,9.0,91,-99.99,,,-99.99,,2013-03-02 00:32:00,
2013-03-01 18:42:00,27.0,25.0,30.23,NNW,337,8.0,11.0,90,-99.99,,,-99.99,,2013-03-02 00:42:00,
2013-03-01 18:52:00,27.0,25.0,30.23,NNW,337,8.0,12.0,89,-99.99,,,-99.99,,2013-03-02 00:52:00,
2013-03-01 19:01:00,27.0,24.0,30.24,NNW,337,7.0,9.0,89,-99.99,,,-99.99,,2013-03-02 01:01:00,
2013-03-01 19:11:00,27.0,25.0,30.24,NNW,337,6.0,8.0,90,-99.99,,,-99.99,,2013-03-02 01:11:00,
2013-03-01 19:21:00,27.0,25.0,30.24,NNW,337,5.0,9.0,91,-99.99,,,-99.99,,2013-03-02 01:21:00,
2013-03-01 19:31:00,27.0,25.0,30.24,NNW,337,6.0,10.0,91,-99.99,,,-99.99,,2013-03-02 01:31:00,
2013-03-01 19:41:00,27.0,25.0,30.24,WNW,292,7.0,9.0,91,-99.99,,,-99.99,,2013-03-02 01:41:00,
2013-03-01 19:51:00,27.0,24.0,30.24,NNW,337,7.0,11.0,91,-99.99,,,-99.99,,2013-03-02 01:51:00,
2013-03-01 20:01:00,27.0,25.0,30.24,East,90,8.0,12.0,90,-99.99,,,-99.99,,2013-03-02 02:01:00,
2013-03-01 20:11:00,27.0,24.0,30.24,NNW,337,7.0,12.0,90,-99.99,,,-99.99,,2013-03-02 02:11:00,
2013-03-01 20:21:00,27.0,24.0,30.25,NNW,337,7.0,12.0,90,-99.99,,,-99.99,,2013-03-02 02:21:00,
2013-03-01 20:32:00,27.0,24.0,30.25,NNW,337,6.0,9.0,91,-99.99,,,-99.99,,2013-03-02 02:32:00,
2013-03-01 20:41:00,27.0,25.0,30.25,NNW,337,6.0,8.0,91,-99.99,,,-99.99,,2013-03-02 02:41:00,
2013-03-01 20:52:00,27.0,24.0,30.25,NNW,337,7.0,11.0,91,-99.99,,,-99.99,,2013-03-02 02:52:00,
2013-03-01 21:01:00,27.0,24.0,30.25,NNW,337,7.0,10.0,91,-99.99,,,-99.99,,2013-03-02 03:01:00,
2013-03-01 21:11:00,27.0,24.0,30.26,NNW,337,7.0,11.0,91,-99.99,,,-99.99,,2013-03-02 03:11:00,
2013-03-01 21:21:00,27.0,24.0,30.26,East,90,7.0,11.0,91,-99.99,,,-99.99,,2013-03-02 03:21:00,
2013-03-01 21:32:00,27.0,24.0,30.26,NNW,337,7.0,11.0,90,-99.99,,,-99.99,,2013-03-02 03:32:00,
2013-03-01 21:41:00,27.0,24.0,30.26,NNW,337,7.0,9.0,90,-99.99,,,-99.99,,2013-03-02 03:41:00,
2013-03-01 21:52:00,27.0,24.0,30.27,East,90,8.0,11.0,90,-99.99,,,-99.99,,2013-03-02 03:52:00,
2013-03-01 22:01:00,26.0,24.0,30.27,East,90,6.0,13.0,90,-99.99,,,-99.99,,2013-03-02 04:01:00,
2013-03-01 22:11:00,26.0,24.0,30.26,NNW,337,8.0,11.0,90,-99.99,,,-99.99,,2013-03-02 04:11:00,
2013-03-01 22:21:00,26.0,24.0,30.27,NNW,337,6.0,9.0,90,-99.99,,,-99.99,,2013-03-02 04:21:00,
2013-03-01 22:32:00,26.0,24.0,30.27,East,90,7.0,12.0,90,-99.99,,,-99.99,,2013-03-02 04:32:00,
2013-03-01 22:41:00,26.0,23.0,30.27,NNW,337,6.0,8.0,90,-99.99,,,-99.99,,2013-03-02 04:41:00,
2013-03-01 22:51:00,26.0,23.0,30.27,NNW,337,5.0,8.0,90,-99.99,,,-99.99,,2013-03-02 04:51:00,
2013-03-01 23:01:00,25.0,23.0,30.27,NNW,337,5.0,8.0,90,-99.99,,,-99.99,,2013-03-02 05:01:00,
2013-03-01 23:12:00,25.0,23.0,30.27,East,90,5.0,7.0,90,-99.99,,,-99.99,,2013-03-02 05:12:00,
2013-03-01 23:22:00,25.0,22.0,30.27,NNW,337,5.0,8.0,90,-99.99,,,-99.99,,2013-03-02 05:22:00,
2013-03-01 23:32:00,25.0,22.0,30.27,NNW,337,6.0,8.0,90,-99.99,,,-99.99,,2013-03-02 05:32:00,
2013-03-01 23:41:00,25.0,22.0,30.27,NNW,337,6.0,8.0,89,-99.99,,,-99.99,,2013-03-02 05:41:00,
2013-03-01 23:52:00,25.0,22.0,30.27,NNW,337,6.0,9.0,89,-99.99,,,-99.99,,2013-03-02 05:52:00,